sensor_id;sensor_type;location;lat;lon;timestamp;P1;durP1;ratioP1;P2;durP2;ratioP2
62863;SDS011;48954;59.950;11.014;2023-09-19T00:01:14;17.40;;;9.90;;
62863;SDS011;48954;59.950;11.014;2023-09-19T00:03:51;18.70;;;10.50;;
62863;SDS011;48954;59.950;11.014;2023-09-19T00:06:29;18.70;;;10.20;;
62863;SDS011;48954;59.950;11.014;2023-09-19T00:09:33;15.50;;;9.50;;
62863;SDS011;48954;59.950;11.014;2023-09-19T00:12:14;21.90;;;9.40;;
62863;SDS011;48954;59.950;11.014;2023-09-19T00:14:58;23.90;;;10.70;;
62863;SDS011;48954;59.950;11.014;2023-09-19T00:17:25;23.00;;;11.40;;
62863;SDS011;48954;59.950;11.014;2023-09-19T00:19:51;22.60;;;10.60;;
62863;SDS011;48954;59.950;11.014;2023-09-19T00:22:33;18.80;;;10.80;;
62863;SDS011;48954;59.950;11.014;2023-09-19T00:25:12;18.50;;;10.40;;
62863;SDS011;48954;59.950;11.014;2023-09-19T00:27:40;22.30;;;9.60;;
62863;SDS011;48954;59.950;11.014;2023-09-19T00:30:22;20.00;;;11.20;;
62863;SDS011;48954;59.950;11.014;2023-09-19T00:33:06;19.90;;;10.30;;
62863;SDS011;48954;59.950;11.014;2023-09-19T00:35:51;19.00;;;10.60;;
62863;SDS011;48954;59.950;11.014;2023-09-19T00:38:22;21.70;;;10.40;;
62863;SDS011;48954;59.950;11.014;2023-09-19T00:40:54;19.60;;;9.90;;
62863;SDS011;48954;59.950;11.014;2023-09-19T00:43:22;20.90;;;10.90;;
62863;SDS011;48954;59.950;11.014;2023-09-19T00:46:02;23.10;;;11.00;;
62863;SDS011;48954;59.950;11.014;2023-09-19T00:48:29;20.30;;;11.10;;
62863;SDS011;48954;59.950;11.014;2023-09-19T00:51:19;18.60;;;10.50;;
62863;SDS011;48954;59.950;11.014;2023-09-19T00:53:55;21.10;;;10.10;;
62863;SDS011;48954;59.950;11.014;2023-09-19T00:56:28;17.60;;;9.60;;
62863;SDS011;48954;59.950;11.014;2023-09-19T00:59:08;18.20;;;9.10;;
62863;SDS011;48954;59.950;11.014;2023-09-19T01:01:50;18.70;;;8.70;;
62863;SDS011;48954;59.950;11.014;2023-09-19T01:04:40;15.40;;;8.70;;
62863;SDS011;48954;59.950;11.014;2023-09-19T01:07:13;18.00;;;8.80;;
62863;SDS011;48954;59.950;11.014;2023-09-19T01:09:41;17.70;;;9.00;;
62863;SDS011;48954;59.950;11.014;2023-09-19T01:12:22;16.50;;;7.40;;
62863;SDS011;48954;59.950;11.014;2023-09-19T01:14:59;22.10;;;8.60;;
62863;SDS011;48954;59.950;11.014;2023-09-19T01:17:46;19.10;;;7.30;;
62863;SDS011;48954;59.950;11.014;2023-09-19T01:27:38;15.50;;;7.40;;
62863;SDS011;48954;59.950;11.014;2023-09-19T01:30:17;15.00;;;7.90;;
62863;SDS011;48954;59.950;11.014;2023-09-19T01:33:01;17.30;;;8.20;;
62863;SDS011;48954;59.950;11.014;2023-09-19T01:35:43;17.20;;;7.60;;
62863;SDS011;48954;59.950;11.014;2023-09-19T01:38:23;16.30;;;8.40;;
62863;SDS011;48954;59.950;11.014;2023-09-19T01:41:05;14.20;;;7.90;;
62863;SDS011;48954;59.950;11.014;2023-09-19T01:44:24;16.60;;;8.00;;
62863;SDS011;48954;59.950;11.014;2023-09-19T01:47:20;14.90;;;7.90;;
62863;SDS011;48954;59.950;11.014;2023-09-19T01:53:02;16.40;;;7.90;;
62863;SDS011;48954;59.950;11.014;2023-09-19T01:55:55;16.80;;;8.10;;
62863;SDS011;48954;59.950;11.014;2023-09-19T02:01:22;14.60;;;8.10;;
62863;SDS011;48954;59.950;11.014;2023-09-19T02:04:04;17.90;;;8.00;;
62863;SDS011;48954;59.950;11.014;2023-09-19T02:06:48;17.10;;;7.80;;
62863;SDS011;48954;59.950;11.014;2023-09-19T02:09:37;12.70;;;7.70;;
62863;SDS011;48954;59.950;11.014;2023-09-19T02:12:40;15.60;;;8.70;;
62863;SDS011;48954;59.950;11.014;2023-09-19T02:15:20;17.30;;;9.10;;
62863;SDS011;48954;59.950;11.014;2023-09-19T02:18:09;20.40;;;8.70;;
62863;SDS011;48954;59.950;11.014;2023-09-19T02:20:52;16.70;;;8.20;;
62863;SDS011;48954;59.950;11.014;2023-09-19T02:23:41;18.30;;;8.90;;
62863;SDS011;48954;59.950;11.014;2023-09-19T02:26:21;15.90;;;8.80;;
62863;SDS011;48954;59.950;11.014;2023-09-19T02:29:04;20.40;;;9.30;;
62863;SDS011;48954;59.950;11.014;2023-09-19T02:31:45;15.50;;;9.00;;
62863;SDS011;48954;59.950;11.014;2023-09-19T02:34:29;16.00;;;8.40;;
62863;SDS011;48954;59.950;11.014;2023-09-19T02:37:12;18.60;;;8.80;;
62863;SDS011;48954;59.950;11.014;2023-09-19T02:39:40;14.60;;;8.40;;
62863;SDS011;48954;59.950;11.014;2023-09-19T02:42:22;17.90;;;8.90;;
62863;SDS011;48954;59.950;11.014;2023-09-19T02:45:04;26.00;;;8.90;;
62863;SDS011;48954;59.950;11.014;2023-09-19T02:47:34;18.50;;;9.40;;
62863;SDS011;48954;59.950;11.014;2023-09-19T02:50:20;17.00;;;9.40;;
62863;SDS011;48954;59.950;11.014;2023-09-19T02:53:11;15.70;;;9.60;;
62863;SDS011;48954;59.950;11.014;2023-09-19T02:55:41;16.30;;;9.40;;
62863;SDS011;48954;59.950;11.014;2023-09-19T02:58:07;18.80;;;10.80;;
62863;SDS011;48954;59.950;11.014;2023-09-19T03:00:37;19.10;;;10.60;;
62863;SDS011;48954;59.950;11.014;2023-09-19T03:03:09;19.70;;;11.40;;
62863;SDS011;48954;59.950;11.014;2023-09-19T03:05:49;18.00;;;10.20;;
62863;SDS011;48954;59.950;11.014;2023-09-19T03:08:30;15.60;;;9.90;;
62863;SDS011;48954;59.950;11.014;2023-09-19T03:10:58;14.60;;;9.30;;
62863;SDS011;48954;59.950;11.014;2023-09-19T03:13:35;13.20;;;8.40;;
62863;SDS011;48954;59.950;11.014;2023-09-19T03:16:15;14.10;;;8.40;;
62863;SDS011;48954;59.950;11.014;2023-09-19T03:18:45;13.10;;;8.20;;
62863;SDS011;48954;59.950;11.014;2023-09-19T03:21:32;15.20;;;8.80;;
62863;SDS011;48954;59.950;11.014;2023-09-19T03:23:58;13.90;;;9.20;;
62863;SDS011;48954;59.950;11.014;2023-09-19T03:26:40;15.60;;;7.90;;
62863;SDS011;48954;59.950;11.014;2023-09-19T03:29:20;12.40;;;7.80;;
62863;SDS011;48954;59.950;11.014;2023-09-19T03:31:50;14.60;;;9.20;;
62863;SDS011;48954;59.950;11.014;2023-09-19T03:34:25;15.20;;;9.60;;
62863;SDS011;48954;59.950;11.014;2023-09-19T03:36:52;15.00;;;10.40;;
62863;SDS011;48954;59.950;11.014;2023-09-19T03:39:19;15.90;;;9.50;;
62863;SDS011;48954;59.950;11.014;2023-09-19T03:41:50;11.90;;;9.20;;
62863;SDS011;48954;59.950;11.014;2023-09-19T03:44:17;14.50;;;9.90;;
62863;SDS011;48954;59.950;11.014;2023-09-19T03:46:45;15.00;;;9.60;;
62863;SDS011;48954;59.950;11.014;2023-09-19T03:52:19;16.80;;;10.30;;
62863;SDS011;48954;59.950;11.014;2023-09-19T03:54:47;15.20;;;9.30;;
62863;SDS011;48954;59.950;11.014;2023-09-19T03:57:16;13.20;;;9.90;;
62863;SDS011;48954;59.950;11.014;2023-09-19T03:59:44;19.00;;;11.10;;
62863;SDS011;48954;59.950;11.014;2023-09-19T04:02:22;14.70;;;10.10;;
62863;SDS011;48954;59.950;11.014;2023-09-19T04:04:52;16.40;;;9.80;;
62863;SDS011;48954;59.950;11.014;2023-09-19T04:07:19;16.90;;;10.50;;
62863;SDS011;48954;59.950;11.014;2023-09-19T04:09:51;16.20;;;10.70;;
62863;SDS011;48954;59.950;11.014;2023-09-19T04:12:19;16.50;;;9.90;;
62863;SDS011;48954;59.950;11.014;2023-09-19T04:14:46;17.80;;;10.20;;
62863;SDS011;48954;59.950;11.014;2023-09-19T04:17:17;15.60;;;10.30;;
62863;SDS011;48954;59.950;11.014;2023-09-19T04:19:46;17.30;;;9.30;;
62863;SDS011;48954;59.950;11.014;2023-09-19T04:22:16;14.80;;;9.60;;
62863;SDS011;48954;59.950;11.014;2023-09-19T04:24:43;16.10;;;9.50;;
62863;SDS011;48954;59.950;11.014;2023-09-19T04:27:11;14.20;;;9.10;;
62863;SDS011;48954;59.950;11.014;2023-09-19T04:29:41;13.60;;;9.50;;
62863;SDS011;48954;59.950;11.014;2023-09-19T04:32:13;12.40;;;8.50;;
62863;SDS011;48954;59.950;11.014;2023-09-19T04:34:54;13.70;;;9.30;;
62863;SDS011;48954;59.950;11.014;2023-09-19T04:37:22;13.40;;;9.30;;
62863;SDS011;48954;59.950;11.014;2023-09-19T04:39:51;12.90;;;8.40;;
62863;SDS011;48954;59.950;11.014;2023-09-19T04:42:20;12.70;;;8.50;;
62863;SDS011;48954;59.950;11.014;2023-09-19T04:45:01;13.80;;;7.80;;
62863;SDS011;48954;59.950;11.014;2023-09-19T04:47:42;12.20;;;8.10;;
62863;SDS011;48954;59.950;11.014;2023-09-19T04:50:16;11.90;;;7.60;;
62863;SDS011;48954;59.950;11.014;2023-09-19T04:53:19;11.70;;;7.20;;
62863;SDS011;48954;59.950;11.014;2023-09-19T04:56:00;10.90;;;7.20;;
62863;SDS011;48954;59.950;11.014;2023-09-19T04:59:08;9.70;;;6.80;;
62863;SDS011;48954;59.950;11.014;2023-09-19T05:02:18;11.30;;;7.20;;
62863;SDS011;48954;59.950;11.014;2023-09-19T05:04:45;10.50;;;7.20;;
62863;SDS011;48954;59.950;11.014;2023-09-19T05:14:21;9.60;;;6.50;;
62863;SDS011;48954;59.950;11.014;2023-09-19T05:17:25;11.40;;;6.60;;
62863;SDS011;48954;59.950;11.014;2023-09-19T05:20:55;9.70;;;6.20;;
62863;SDS011;48954;59.950;11.014;2023-09-19T05:24:00;9.10;;;5.60;;
62863;SDS011;48954;59.950;11.014;2023-09-19T05:26:41;10.50;;;6.60;;
62863;SDS011;48954;59.950;11.014;2023-09-19T05:29:09;7.70;;;5.20;;
62863;SDS011;48954;59.950;11.014;2023-09-19T05:31:40;7.90;;;5.70;;
62863;SDS011;48954;59.950;11.014;2023-09-19T05:34:06;7.20;;;4.70;;
62863;SDS011;48954;59.950;11.014;2023-09-19T05:36:36;8.40;;;5.00;;
62863;SDS011;48954;59.950;11.014;2023-09-19T05:39:06;7.00;;;4.80;;
62863;SDS011;48954;59.950;11.014;2023-09-19T05:41:33;5.90;;;4.20;;
62863;SDS011;48954;59.950;11.014;2023-09-19T05:43:59;6.80;;;4.70;;
62863;SDS011;48954;59.950;11.014;2023-09-19T05:46:42;9.60;;;4.70;;
62863;SDS011;48954;59.950;11.014;2023-09-19T05:49:12;6.90;;;5.30;;
62863;SDS011;48954;59.950;11.014;2023-09-19T05:51:38;7.70;;;4.10;;
62863;SDS011;48954;59.950;11.014;2023-09-19T05:54:05;6.10;;;3.90;;
62863;SDS011;48954;59.950;11.014;2023-09-19T05:56:32;7.10;;;3.90;;
62863;SDS011;48954;59.950;11.014;2023-09-19T05:58:59;5.90;;;3.70;;
62863;SDS011;48954;59.950;11.014;2023-09-19T06:01:26;7.10;;;4.10;;
62863;SDS011;48954;59.950;11.014;2023-09-19T06:03:54;9.10;;;4.10;;
62863;SDS011;48954;59.950;11.014;2023-09-19T06:06:20;6.50;;;3.90;;
62863;SDS011;48954;59.950;11.014;2023-09-19T06:08:46;8.20;;;4.80;;
62863;SDS011;48954;59.950;11.014;2023-09-19T06:11:21;8.70;;;4.80;;
62863;SDS011;48954;59.950;11.014;2023-09-19T06:13:50;8.60;;;4.40;;
62863;SDS011;48954;59.950;11.014;2023-09-19T06:16:17;8.20;;;5.00;;
62863;SDS011;48954;59.950;11.014;2023-09-19T06:19:09;12.40;;;4.70;;
62863;SDS011;48954;59.950;11.014;2023-09-19T06:21:50;8.30;;;3.80;;
62863;SDS011;48954;59.950;11.014;2023-09-19T06:24:16;6.20;;;3.90;;
62863;SDS011;48954;59.950;11.014;2023-09-19T06:26:42;5.50;;;3.10;;
62863;SDS011;48954;59.950;11.014;2023-09-19T06:29:11;6.60;;;3.60;;
62863;SDS011;48954;59.950;11.014;2023-09-19T06:32:07;5.10;;;3.00;;
62863;SDS011;48954;59.950;11.014;2023-09-19T06:34:42;4.80;;;2.90;;
62863;SDS011;48954;59.950;11.014;2023-09-19T06:37:12;6.30;;;2.60;;
62863;SDS011;48954;59.950;11.014;2023-09-19T06:39:38;4.90;;;3.10;;
62863;SDS011;48954;59.950;11.014;2023-09-19T06:42:06;6.00;;;3.20;;
62863;SDS011;48954;59.950;11.014;2023-09-19T06:44:34;5.60;;;2.70;;
62863;SDS011;48954;59.950;11.014;2023-09-19T06:47:04;5.50;;;3.00;;
62863;SDS011;48954;59.950;11.014;2023-09-19T06:49:34;6.00;;;2.40;;
62863;SDS011;48954;59.950;11.014;2023-09-19T06:52:07;9.00;;;2.90;;
62863;SDS011;48954;59.950;11.014;2023-09-19T06:55:00;9.00;;;2.40;;
62863;SDS011;48954;59.950;11.014;2023-09-19T06:57:29;8.10;;;2.40;;
62863;SDS011;48954;59.950;11.014;2023-09-19T06:59:59;7.00;;;2.30;;
62863;SDS011;48954;59.950;11.014;2023-09-19T07:03:02;6.20;;;2.00;;
62863;SDS011;48954;59.950;11.014;2023-09-19T07:05:32;7.40;;;2.40;;
62863;SDS011;48954;59.950;11.014;2023-09-19T07:08:05;9.30;;;2.50;;
62863;SDS011;48954;59.950;11.014;2023-09-19T07:10:38;4.50;;;1.70;;
62863;SDS011;48954;59.950;11.014;2023-09-19T07:13:44;7.20;;;1.90;;
62863;SDS011;48954;59.950;11.014;2023-09-19T07:16:30;7.00;;;1.90;;
62863;SDS011;48954;59.950;11.014;2023-09-19T07:19:11;6.90;;;1.90;;
62863;SDS011;48954;59.950;11.014;2023-09-19T07:21:59;7.70;;;1.70;;
62863;SDS011;48954;59.950;11.014;2023-09-19T07:24:26;5.00;;;1.50;;
62863;SDS011;48954;59.950;11.014;2023-09-19T07:26:57;4.60;;;1.40;;
62863;SDS011;48954;59.950;11.014;2023-09-19T07:29:23;3.00;;;1.30;;
62863;SDS011;48954;59.950;11.014;2023-09-19T07:31:49;4.60;;;1.40;;
62863;SDS011;48954;59.950;11.014;2023-09-19T07:34:20;4.70;;;1.40;;
62863;SDS011;48954;59.950;11.014;2023-09-19T07:36:58;6.50;;;1.80;;
62863;SDS011;48954;59.950;11.014;2023-09-19T07:39:39;7.00;;;1.20;;
62863;SDS011;48954;59.950;11.014;2023-09-19T07:42:16;6.50;;;1.60;;
62863;SDS011;48954;59.950;11.014;2023-09-19T07:44:59;5.30;;;1.50;;
62863;SDS011;48954;59.950;11.014;2023-09-19T07:47:49;7.00;;;1.30;;
62863;SDS011;48954;59.950;11.014;2023-09-19T07:50:22;8.00;;;1.50;;
62863;SDS011;48954;59.950;11.014;2023-09-19T07:52:54;6.80;;;1.20;;
62863;SDS011;48954;59.950;11.014;2023-09-19T07:55:35;4.80;;;1.10;;
62863;SDS011;48954;59.950;11.014;2023-09-19T07:58:02;7.20;;;1.50;;
62863;SDS011;48954;59.950;11.014;2023-09-19T08:01:02;4.00;;;0.90;;
62863;SDS011;48954;59.950;11.014;2023-09-19T08:03:43;9.20;;;1.70;;
62863;SDS011;48954;59.950;11.014;2023-09-19T08:06:24;6.00;;;1.10;;
62863;SDS011;48954;59.950;11.014;2023-09-19T08:08:51;4.80;;;1.10;;
62863;SDS011;48954;59.950;11.014;2023-09-19T08:11:22;5.80;;;1.40;;
62863;SDS011;48954;59.950;11.014;2023-09-19T08:14:07;7.70;;;1.50;;
62863;SDS011;48954;59.950;11.014;2023-09-19T08:16:43;9.10;;;1.60;;
62863;SDS011;48954;59.950;11.014;2023-09-19T08:19:34;7.20;;;1.40;;
62863;SDS011;48954;59.950;11.014;2023-09-19T08:22:21;5.50;;;1.50;;
62863;SDS011;48954;59.950;11.014;2023-09-19T08:25:11;5.40;;;1.10;;
62863;SDS011;48954;59.950;11.014;2023-09-19T08:28:12;5.70;;;1.50;;
62863;SDS011;48954;59.950;11.014;2023-09-19T08:30:43;6.70;;;1.40;;
62863;SDS011;48954;59.950;11.014;2023-09-19T08:33:23;7.60;;;2.00;;
62863;SDS011;48954;59.950;11.014;2023-09-19T08:36:06;4.90;;;1.30;;
62863;SDS011;48954;59.950;11.014;2023-09-19T08:38:33;5.30;;;1.20;;
62863;SDS011;48954;59.950;11.014;2023-09-19T08:41:30;6.00;;;1.70;;
62863;SDS011;48954;59.950;11.014;2023-09-19T08:44:58;5.30;;;1.60;;
62863;SDS011;48954;59.950;11.014;2023-09-19T08:47:48;10.50;;;1.60;;
62863;SDS011;48954;59.950;11.014;2023-09-19T08:51:00;6.20;;;1.10;;
62863;SDS011;48954;59.950;11.014;2023-09-19T09:00:26;6.50;;;1.50;;
62863;SDS011;48954;59.950;11.014;2023-09-19T09:03:34;6.10;;;1.50;;
62863;SDS011;48954;59.950;11.014;2023-09-19T09:09:32;5.80;;;1.40;;
62863;SDS011;48954;59.950;11.014;2023-09-19T09:12:52;3.40;;;1.00;;
62863;SDS011;48954;59.950;11.014;2023-09-19T09:15:35;5.00;;;1.10;;
62863;SDS011;48954;59.950;11.014;2023-09-19T09:28:13;3.70;;;1.00;;
62863;SDS011;48954;59.950;11.014;2023-09-19T09:33:58;2.20;;;0.70;;
62863;SDS011;48954;59.950;11.014;2023-09-19T09:43:26;2.60;;;0.80;;
62863;SDS011;48954;59.950;11.014;2023-09-19T09:46:11;2.60;;;1.00;;
62863;SDS011;48954;59.950;11.014;2023-09-19T09:58:20;2.60;;;0.80;;
62863;SDS011;48954;59.950;11.014;2023-09-19T10:18:28;1.80;;;0.70;;
62863;SDS011;48954;59.950;11.014;2023-09-19T10:28:10;2.40;;;0.80;;
62863;SDS011;48954;59.950;11.014;2023-09-19T10:36:59;2.10;;;0.70;;
62863;SDS011;48954;59.950;11.014;2023-09-19T10:40:04;2.90;;;0.70;;
62863;SDS011;48954;59.950;11.014;2023-09-19T10:43:15;3.50;;;0.60;;
62863;SDS011;48954;59.950;11.014;2023-09-19T10:45:57;2.00;;;0.60;;
62863;SDS011;48954;59.950;11.014;2023-09-19T10:48:49;4.30;;;0.70;;
62863;SDS011;48954;59.950;11.014;2023-09-19T10:55:01;0.90;;;0.40;;
62863;SDS011;48954;59.950;11.014;2023-09-19T11:03:49;0.90;;;0.60;;
62863;SDS011;48954;59.950;11.014;2023-09-19T11:07:12;3.80;;;0.70;;
62863;SDS011;48954;59.950;11.014;2023-09-19T11:09:55;3.10;;;0.70;;
62863;SDS011;48954;59.950;11.014;2023-09-19T11:26:49;1.40;;;0.60;;
62863;SDS011;48954;59.950;11.014;2023-09-19T11:29:33;2.90;;;0.70;;
62863;SDS011;48954;59.950;11.014;2023-09-19T11:36:03;1.40;;;0.50;;
62863;SDS011;48954;59.950;11.014;2023-09-19T11:42:52;1.20;;;0.50;;
62863;SDS011;48954;59.950;11.014;2023-09-19T11:46:00;2.30;;;0.60;;
62863;SDS011;48954;59.950;11.014;2023-09-19T11:48:43;3.60;;;0.60;;
62863;SDS011;48954;59.950;11.014;2023-09-19T11:51:24;1.00;;;0.60;;
62863;SDS011;48954;59.950;11.014;2023-09-19T11:54:27;1.80;;;0.70;;
62863;SDS011;48954;59.950;11.014;2023-09-19T12:03:37;2.20;;;0.70;;
62863;SDS011;48954;59.950;11.014;2023-09-19T12:06:23;1.30;;;0.60;;
62863;SDS011;48954;59.950;11.014;2023-09-19T12:09:04;2.60;;;0.80;;
62863;SDS011;48954;59.950;11.014;2023-09-19T12:12:11;2.40;;;0.60;;
62863;SDS011;48954;59.950;11.014;2023-09-19T12:15:31;2.90;;;0.70;;
62863;SDS011;48954;59.950;11.014;2023-09-19T12:30:00;1.90;;;0.70;;
62863;SDS011;48954;59.950;11.014;2023-09-19T12:41:31;3.20;;;0.70;;
62863;SDS011;48954;59.950;11.014;2023-09-19T12:53:26;1.60;;;0.50;;
62863;SDS011;48954;59.950;11.014;2023-09-19T13:08:44;2.30;;;0.70;;
62863;SDS011;48954;59.950;11.014;2023-09-19T22:17:57;9.70;;;1.70;;
